CW9533 Torre Faro Messina IT current weather conditions

sailwx.info

Wind from 184 at 9 knots gusting 24

Air temperature 13.9° C
Dewpoint 9.5° C

Last reported at 2015-Jan-30 09:45 UTC.
Time now 2015-Jan-30 10:56 UTC

Location: N 38°16' E 015°39'.
View on Google Maps.

See reports from other nearby stations

  
Tides and Currents Weather Stations Pressure Air Temp Water Temp Dewpoint Dewpoint Depression Visibility Wind Speed Wind Dir Waves Ship Positions
date/time (UTC)wind fromknots sea level pressurealtimeterstation pressurevisibilityair tempwater tempwave heightnotes
2015-Jan-30 09:45 184 9 gusting 24 13.9
2015-Jan-30 09:30 184 14 gusting 24 13.9
2015-Jan-30 09:15 186 14 gusting 25 13.9
2015-Jan-30 09:00 185 9 gusting 15 13.9
2015-Jan-30 08:45 186 11 gusting 20 13.9
2015-Jan-30 08:30 185 9 gusting 19 13.9
2015-Jan-30 08:15 180 8 gusting 19 13.9
2015-Jan-30 08:00 185 12 gusting 19 13.3
2015-Jan-30 07:45 184 11 gusting 19 13.3
2015-Jan-30 07:30 188 13 gusting 19 13.3
2015-Jan-30 07:15 186 4 gusting 7 12.2
2015-Jan-30 07:00
2015-Jan-30 06:45
2015-Jan-30 06:30
2015-Jan-30 06:15
2015-Jan-30 06:00
2015-Jan-30 05:45
2015-Jan-30 05:29
2015-Jan-30 05:14
2015-Jan-30 04:59
2015-Jan-30 04:44 186 4 gusting 13 12.2
2015-Jan-30 04:29 188 3 gusting 7 11.1
2015-Jan-30 04:14 189 3 gusting 8 11.1
2015-Jan-30 03:59 189 4 gusting 7 11.1
2015-Jan-30 03:44 189 3 gusting 7 11.1
2015-Jan-30 03:29 189 5 gusting 9 11.1
2015-Jan-30 03:14 189 4 gusting 9 11.1
2015-Jan-30 02:59 189 4 gusting 9 11.1
2015-Jan-30 02:44 189 4 gusting 7 11.1
2015-Jan-30 02:29 189 3 gusting 6 11.1
2015-Jan-30 02:14 189 3 gusting 12 11.1
2015-Jan-30 01:59 189 4 gusting 7 10.6
2015-Jan-30 01:44 189 2 gusting 6 10.6
2015-Jan-30 01:29 188 3 gusting 6 10.6
2015-Jan-30 01:14 188 3 gusting 7 10.6
2015-Jan-30 00:59 188 3 gusting 7 10.6
2015-Jan-30 00:44 188 3 gusting 6 10.6
2015-Jan-30 00:29 188 4 gusting 8 10.6
2015-Jan-30 00:14 188 3 gusting 6 10.6
2015-Jan-29 23:59 188 1 gusting 6 10.6
2015-Jan-29 23:44 188 2 gusting 6 10.6
2015-Jan-29 23:28 188 1 gusting 4 10.6
2015-Jan-29 23:13 188 2 gusting 6 10.6
2015-Jan-29 22:58 188 2 gusting 6 10.0
2015-Jan-29 22:43 188 2 gusting 5 10.0
2015-Jan-29 22:28 188 1 gusting 5 10.0
2015-Jan-29 22:13 188 1 gusting 4 10.0
2015-Jan-29 21:58 188 1 gusting 6 10.0
2015-Jan-29 21:43 188 0 gusting 6 10.0
2015-Jan-29 21:28 189 1 gusting 4 10.0
2015-Jan-29 21:13 188 1 gusting 3 10.0
2015-Jan-29 20:58 188 1 gusting 3 10.0
2015-Jan-29 20:43 188 0 gusting 2 10.0
2015-Jan-29 20:28 188 10.0
2015-Jan-29 20:13 183 1 gusting 3 10.0
2015-Jan-29 19:58 183 10.0
2015-Jan-29 19:43 183 10.6
2015-Jan-29 19:28 183 0 gusting 3 10.6
2015-Jan-29 19:13 183 10.6
2015-Jan-29 18:58 183 10.6
2015-Jan-29 18:43 183 10.6
2015-Jan-29 18:28 183 10.6
2015-Jan-29 18:13 183 10.6
2015-Jan-29 17:58 183 11.1
2015-Jan-29 17:43 183 0 gusting 2 11.1
2015-Jan-29 17:28 183 11.1
2015-Jan-29 17:13 183 11.1
2015-Jan-29 16:58 183 1 gusting 6 11.1
2015-Jan-29 16:43 183 3 gusting 9 11.1
2015-Jan-29 16:28 185 2 gusting 10 11.1
2015-Jan-29 16:13 184 1 gusting 11 11.1
2015-Jan-29 15:58 183 3 gusting 6 11.1
2015-Jan-29 15:43 186 3 gusting 10 11.7
2015-Jan-29 15:28 183 6 gusting 13 11.7
2015-Jan-29 15:13 189 7 gusting 15 11.7
2015-Jan-29 14:58 188 4 gusting 16 11.7
2015-Jan-29 14:43 182 8 gusting 15 11.7
2015-Jan-29 14:28 190 7 gusting 16 11.7
2015-Jan-29 14:13 189 9 gusting 15 11.7
2015-Jan-29 13:58 189 3 gusting 11 12.2
2015-Jan-29 13:43 183 5 gusting 13 12.2
2015-Jan-29 13:28 189 5 gusting 13 12.2
2015-Jan-29 13:13 188 7 gusting 14 12.2
2015-Jan-29 12:43 182 5 gusting 14 12.2
2015-Jan-29 12:28 188 8 gusting 14 12.2
2015-Jan-29 12:13 182 6 gusting 16 12.2
2015-Jan-29 11:58 182 8 gusting 16 12.2
2015-Jan-29 11:43 183 4 gusting 13 12.2
2015-Jan-29 11:28 184 5 gusting 12 12.2
2015-Jan-29 11:13 182 6 gusting 13 12.2
2015-Jan-29 10:58 182 4 gusting 13 12.2
2015-Jan-29 10:43 182 4 gusting 13 12.2
2015-Jan-29 10:28 182 6 gusting 10 12.2
2015-Jan-29 10:13 182 5 gusting 11 11.7
2015-Jan-29 09:58 182 8 gusting 13 11.7
2015-Jan-29 09:43 182 6 gusting 12 11.7
2015-Jan-29 09:28 188 7 gusting 14 11.7
2015-Jan-29 09:13 182 6 gusting 14 11.7
2015-Jan-29 08:58 182 6 gusting 13 11.1
2015-Jan-29 08:43 182 5 gusting 13 11.1
2015-Jan-29 08:28 186 5 gusting 13 11.1
2015-Jan-29 08:13 182 6 gusting 13 11.1
2015-Jan-29 07:57 182 6 gusting 14 10.6
2015-Jan-29 07:42 182 7 gusting 13 10.6
2015-Jan-29 07:27 182 8 gusting 18 11.1
2015-Jan-29 07:12 182 9 gusting 18 10.6
2015-Jan-29 06:57 182 6 gusting 14 10.6
2015-Jan-29 05:42
2015-Jan-29 05:27
2015-Jan-29 05:12
2015-Jan-29 04:57
2015-Jan-29 04:42
2015-Jan-29 04:27
2015-Jan-29 04:12 182 6 gusting 13 9.4
2015-Jan-29 03:57 182 6 gusting 12 9.4
2015-Jan-29 03:42 182 6 gusting 11 8.9
2015-Jan-29 03:26 182 9 gusting 17 8.9
2015-Jan-29 03:11 182 4 gusting 9 8.3
2015-Jan-29 02:56 182 4 gusting 9 7.8
2015-Jan-29 02:41 182 6 gusting 11 7.8
2015-Jan-29 02:26 182 6 gusting 11 7.2
2015-Jan-29 02:11 182 6 gusting 12 7.8
2015-Jan-29 01:56 183 6 gusting 11 7.8
2015-Jan-29 01:41 183 5 gusting 10 7.2
2015-Jan-29 01:26 183 4 gusting 13 7.8
2015-Jan-29 01:11 182 9 gusting 15 7.8
2015-Jan-29 00:56 182 6 gusting 11 7.2
2015-Jan-29 00:41 183 7 gusting 13 7.8
2015-Jan-29 00:26 183 5 gusting 9 7.2
2015-Jan-29 00:11 183 6 gusting 13 7.2
2015-Jan-28 23:56 183 6 gusting 13 7.2
2015-Jan-28 23:41 183 4 gusting 11 7.2
2015-Jan-28 23:26 183 5 gusting 11 7.2
2015-Jan-28 23:11 182 5 gusting 11 7.2
2015-Jan-28 22:56 183 3 gusting 7 7.2
2015-Jan-28 22:41 183 5 gusting 10 7.2
2015-Jan-28 22:26 182 4 gusting 10 7.2
2015-Jan-28 22:11 182 6 gusting 11 7.2
2015-Jan-28 21:56 182 5 gusting 9 7.2
2015-Jan-28 21:41 183 4 gusting 13 7.2
2015-Jan-28 21:26 182 6 gusting 16 7.2
2015-Jan-28 21:11 182 6 gusting 13 7.2
2015-Jan-28 20:56 182 6 gusting 13 7.2
2015-Jan-28 20:41 182 6 gusting 15 7.8
2015-Jan-28 20:26 182 6 gusting 18 7.8
2015-Jan-28 20:11 183 8 gusting 14 7.8
2015-Jan-28 19:56 183 6 gusting 11 7.8
2015-Jan-28 19:41 183 1 gusting 8 7.8
2015-Jan-28 19:26 184 1 gusting 9 7.8
2015-Jan-28 19:11 183 1 gusting 6 7.8
2015-Jan-28 18:56 183 2 gusting 6 7.8
2015-Jan-28 18:41 186 0 gusting 6 7.2
2015-Jan-28 18:26 189 1 gusting 6 7.2
2015-Jan-28 18:11 189 6 gusting 12 7.2
2015-Jan-28 17:56 189 6 gusting 11 7.2
2015-Jan-28 17:41 189 6 gusting 13 7.2
2015-Jan-28 17:26 190 6 gusting 13 7.2
2015-Jan-28 17:11 184 3 gusting 8 7.2
2015-Jan-28 16:56 187 4 gusting 10 7.2
2015-Jan-28 16:41 189 4 gusting 8 7.8
2015-Jan-28 16:26 186 4 gusting 11 7.2
2015-Jan-28 16:11 190 5 gusting 9 7.2
2015-Jan-28 15:56 189 4 gusting 13 7.8
2015-Jan-28 15:41 190 3 gusting 8 7.8
2015-Jan-28 15:26 189 1 gusting 5 7.8
2015-Jan-28 15:11 189 7.8
2015-Jan-28 14:56 190 7.8
2015-Jan-28 14:41 190 2 gusting 3 7.8
2015-Jan-28 14:26 190 2 gusting 6 7.8
2015-Jan-28 14:11 188 4 gusting 6 7.8
2015-Jan-28 13:56 184 3 gusting 8 8.3
2015-Jan-28 13:41 189 0 gusting 3 7.8
2015-Jan-28 13:26 189 0 gusting 5 7.8
2015-Jan-28 13:11 189 0 gusting 3 7.8
2015-Jan-28 12:56 189 0 gusting 9 7.2
2015-Jan-28 12:40 192 9 gusting 15 8.3
2015-Jan-28 12:25 189 5 gusting 13 9.4
2015-Jan-28 12:10 189 5 gusting 13 10.0
2015-Jan-28 11:55 188 4 gusting 12 10.0
2015-Jan-28 11:40 188 3 gusting 7 10.0
2015-Jan-28 11:25 188 5 gusting 9 10.0
2015-Jan-28 11:10 188 1 gusting 5 9.4
2015-Jan-28 10:55 189 3 gusting 7 9.4
2015-Jan-28 10:40 188 3 gusting 9 9.4
2015-Jan-28 10:25 189 3 gusting 7 9.4
2015-Jan-28 10:10 188 2 gusting 6 9.4